createdAt,value
2022-12-28T00:01:25.531Z,100838.84
2022-12-28T00:03:52.632Z,100840.56
2022-12-28T00:06:21.272Z,100823.31
2022-12-28T00:08:47.809Z,100810.00
2022-12-28T00:11:28.192Z,100800.66
2022-12-28T00:14:01.034Z,100797.38
2022-12-28T00:16:30.525Z,100795.84
2022-12-28T00:18:59.032Z,100785.81
2022-12-28T00:21:26.426Z,100780.63
2022-12-28T00:23:57.347Z,100773.78
2022-12-28T00:26:25.708Z,100776.06
2022-12-28T00:28:54.364Z,100764.72
2022-12-28T00:31:22.028Z,100771.47
2022-12-28T00:33:48.375Z,100764.81
2022-12-28T00:36:15.611Z,100761.34
2022-12-28T00:38:43.228Z,100751.59
2022-12-28T00:41:10.647Z,100742.69
2022-12-28T00:43:37.331Z,100741.63
2022-12-28T00:46:04.461Z,100738.25
2022-12-28T00:48:30.784Z,100728.69
2022-12-28T00:51:12.928Z,100724.44
2022-12-28T00:53:39.591Z,100714.56
2022-12-28T00:56:11.880Z,100713.72
2022-12-28T00:58:38.354Z,100712.13
2022-12-28T01:01:06.152Z,100705.75
2022-12-28T01:03:32.579Z,100695.56
2022-12-28T01:05:58.933Z,100689.53
2022-12-28T01:08:25.224Z,100676.06
2022-12-28T01:10:51.519Z,100687.47
2022-12-28T01:13:17.822Z,100682.69
2022-12-28T01:15:44.142Z,100672.16
2022-12-28T01:18:10.441Z,100676.03
2022-12-28T01:20:40.356Z,100676.03
2022-12-28T01:23:07.037Z,100684.72
2022-12-28T01:25:33.887Z,100690.34
2022-12-28T01:28:00.182Z,100671.59
2022-12-28T01:30:26.513Z,100673.69
2022-12-28T01:32:52.813Z,100669.75
2022-12-28T01:35:19.130Z,100656.00
2022-12-28T01:37:45.422Z,100657.41
2022-12-28T01:40:14.742Z,100655.59
2022-12-28T01:42:41.061Z,100649.75
2022-12-28T01:45:18.344Z,100642.47
2022-12-28T01:47:46.368Z,100644.88
2022-12-28T01:50:20.868Z,100642.31
2022-12-28T01:53:02.047Z,100630.97
2022-12-28T01:55:32.455Z,100622.63
2022-12-28T01:58:05.495Z,100623.53
2022-12-28T02:00:32.387Z,100615.72
2022-12-28T02:03:13.033Z,100615.06
2022-12-28T02:05:43.079Z,100614.59
2022-12-28T02:08:15.670Z,100605.97
2022-12-28T02:10:45.772Z,100615.84
2022-12-28T02:13:14.815Z,100611.00
2022-12-28T02:15:41.339Z,100614.00
2022-12-28T02:18:08.504Z,100612.66
2022-12-28T02:21:03.455Z,100602.59
2022-12-28T02:23:48.309Z,100601.09
2022-12-28T02:26:31.675Z,100581.03
2022-12-28T02:29:19.526Z,100567.38
2022-12-28T02:32:03.686Z,100556.56
2022-12-28T02:34:45.770Z,100553.09
2022-12-28T02:37:26.958Z,100562.72
2022-12-28T02:40:02.139Z,100548.75
2022-12-28T02:42:29.982Z,100549.47
2022-12-28T02:44:56.592Z,100544.47
2022-12-28T02:47:23.641Z,100538.34
2022-12-28T02:49:49.955Z,100540.97
2022-12-28T02:52:31.137Z,100537.47
2022-12-28T02:55:00.494Z,100524.72
2022-12-28T02:57:55.006Z,100518.38
2022-12-28T03:00:25.311Z,100521.06
2022-12-28T03:03:31.991Z,100517.44
2022-12-28T03:06:19.184Z,100505.09
2022-12-28T03:08:48.933Z,100502.75
2022-12-28T03:11:19.949Z,100485.22
2022-12-28T03:14:01.616Z,100481.69
2022-12-28T03:16:35.769Z,100480.09
2022-12-28T03:19:07.791Z,100471.25
2022-12-28T03:21:36.249Z,100455.88
2022-12-28T03:24:05.745Z,100453.59
2022-12-28T03:26:34.493Z,100451.75
2022-12-28T03:29:04.167Z,100439.34
2022-12-28T03:31:32.661Z,100428.59
2022-12-28T03:34:00.712Z,100432.63
2022-12-28T03:36:43.289Z,100425.31
2022-12-28T03:39:23.059Z,100426.19
2022-12-28T03:41:55.789Z,100429.72
2022-12-28T03:44:26.581Z,100410.34
2022-12-28T03:47:00.039Z,100408.25
2022-12-28T03:49:28.173Z,100405.06
2022-12-28T03:51:55.867Z,100393.72
2022-12-28T03:54:22.294Z,100384.38
2022-12-28T03:56:50.634Z,100369.00
2022-12-28T03:59:17.795Z,100374.41
2022-12-28T04:01:45.145Z,100366.06
2022-12-28T04:04:11.901Z,100352.34
2022-12-28T04:06:38.577Z,100348.31
2022-12-28T04:09:05.696Z,100344.28
2022-12-28T04:11:32.339Z,100350.75
2022-12-28T04:13:58.673Z,100357.25
2022-12-28T04:16:25.111Z,100348.09
2022-12-28T04:18:51.554Z,100331.38
2022-12-28T04:21:17.841Z,100345.94
2022-12-28T04:23:44.204Z,100338.66
2022-12-28T04:26:13.267Z,100331.16
2022-12-28T04:28:40.113Z,100325.47
2022-12-28T04:31:08.077Z,100316.59
2022-12-28T04:33:36.104Z,100300.13
2022-12-28T04:36:06.505Z,100297.16
2022-12-28T04:38:34.071Z,100300.13
2022-12-28T04:41:00.532Z,100313.63
2022-12-28T04:43:26.898Z,100302.03
2022-12-28T04:45:58.227Z,100296.91
2022-12-28T04:48:25.527Z,100298.81
2022-12-28T04:50:52.985Z,100302.28
2022-12-28T04:53:19.355Z,100298.78
2022-12-28T04:55:45.721Z,100309.56
2022-12-28T04:58:12.245Z,100299.31
2022-12-28T05:00:38.747Z,100291.00
2022-12-28T05:03:05.221Z,100293.16
2022-12-28T05:05:32.536Z,100286.69
2022-12-28T05:08:02.464Z,100291.25
2022-12-28T05:10:29.609Z,100276.94
2022-12-28T05:12:56.480Z,100276.97
2022-12-28T05:15:22.959Z,100278.31
2022-12-28T05:17:49.284Z,100279.41
2022-12-28T05:20:15.580Z,100274.81
2022-12-28T05:22:41.879Z,100273.72
2022-12-28T05:25:08.500Z,100277.78
2022-12-28T05:27:34.813Z,100275.09
2022-12-28T05:30:01.117Z,100266.97
2022-12-28T05:32:27.414Z,100280.47
2022-12-28T05:34:53.737Z,100265.13
2022-12-28T05:37:22.127Z,100274.28
2022-12-28T05:39:48.762Z,100267.78
2022-12-28T05:42:15.069Z,100266.44
2022-12-28T05:44:41.551Z,100265.09
2022-12-28T05:47:07.887Z,100267.28
2022-12-28T05:49:34.232Z,100267.28
2022-12-28T05:52:00.548Z,100275.88
2022-12-28T05:54:26.847Z,100261.88
2022-12-28T05:56:53.167Z,100254.34
2022-12-28T05:59:19.471Z,100245.69
2022-12-28T06:01:45.911Z,100237.09
2022-12-28T06:04:18.086Z,100245.97
2022-12-28T06:06:45.823Z,100243.00
2022-12-28T06:09:12.830Z,100231.16
2022-12-28T06:11:39.399Z,100234.41
2022-12-28T06:14:06.186Z,100236.56
2022-12-28T06:16:38.225Z,100234.94
2022-12-28T06:19:12.231Z,100226.59
2022-12-28T06:21:39.888Z,100234.41
2022-12-28T06:24:07.900Z,100227.94
2022-12-28T06:26:35.880Z,100222.00
2022-12-28T06:29:02.277Z,100221.19
2022-12-28T06:31:34.830Z,100230.06
2022-12-28T06:34:02.830Z,100224.69
2022-12-28T06:36:35.077Z,100214.47
2022-12-28T06:39:03.097Z,100223.59
2022-12-28T06:41:29.680Z,100221.72
2022-12-28T06:43:57.053Z,100224.66
2022-12-28T06:46:25.717Z,100216.06
2022-12-28T06:48:52.057Z,100220.38
2022-12-28T06:51:23.623Z,100217.38
2022-12-28T06:53:51.995Z,100225.22
2022-12-28T06:56:29.651Z,100218.22
2022-12-28T06:59:02.314Z,100216.56
2022-12-28T07:01:32.570Z,100220.63
2022-12-28T07:04:00.278Z,100233.03
2022-12-28T07:06:28.356Z,100224.16
2022-12-28T07:09:06.640Z,100224.41
2022-12-28T07:11:33.320Z,100219.28
2022-12-28T07:13:59.747Z,100218.75
2022-12-28T07:18:55.007Z,100212.25
2022-12-28T07:21:24.556Z,100216.56
2022-12-28T07:23:52.978Z,100216.31
2022-12-28T07:26:22.520Z,100214.41
2022-12-28T07:28:51.949Z,100220.59
2022-12-28T07:31:27.658Z,100230.84
2022-12-28T07:33:55.884Z,100230.56
2022-12-28T07:36:23.854Z,100214.09
2022-12-28T07:38:50.587Z,100215.94
2022-12-28T07:41:19.764Z,100203.06
2022-12-28T07:43:46.483Z,100208.41
2022-12-28T07:46:15.702Z,100214.34
2022-12-28T07:48:43.748Z,100206.22
2022-12-28T07:51:16.147Z,100203.53
2022-12-28T07:53:44.311Z,100198.16
2022-12-28T07:56:11.299Z,100204.34
2022-12-28T07:58:37.621Z,100214.00
2022-12-28T08:01:15.532Z,100202.41
2022-12-28T08:03:44.616Z,100204.56
2022-12-28T08:06:12.695Z,100202.94
2022-12-28T08:08:41.678Z,100201.63
2022-12-28T08:11:11.193Z,100205.34
2022-12-28T08:13:40.145Z,100209.06
2022-12-28T08:16:07.608Z,100196.59
2022-12-28T08:18:34.133Z,100213.88
2022-12-28T08:21:06.441Z,100207.63
2022-12-28T08:23:33.299Z,100199.50
2022-12-28T08:26:27.898Z,100207.06
2022-12-28T08:28:57.297Z,100217.25
2022-12-28T08:31:26.686Z,100207.03
2022-12-28T08:33:55.446Z,100219.38
2022-12-28T08:36:22.089Z,100225.34
2022-12-28T08:38:48.577Z,100207.22
2022-12-28T08:41:23.569Z,100217.75
2022-12-28T08:43:51.534Z,100225.38
2022-12-28T08:46:23.094Z,100215.03
2022-12-28T08:48:51.244Z,100212.88
2022-12-28T08:51:20.428Z,100210.97
2022-12-28T08:53:47.728Z,100214.47
2022-12-28T08:56:16.887Z,100206.13
2022-12-28T08:58:45.155Z,100215.03
2022-12-28T09:01:17.754Z,100206.44
2022-12-28T09:03:46.328Z,100219.16
2022-12-28T09:06:15.965Z,100221.56
2022-12-28T09:08:42.791Z,100220.50
2022-12-28T09:11:18.208Z,100225.63
2022-12-28T09:13:45.103Z,100231.88
2022-12-28T09:16:14.134Z,100239.44
2022-12-28T09:18:42.263Z,100240.47
2022-12-28T09:21:14.495Z,100242.16
2022-12-28T09:23:41.999Z,100240.25
2022-12-28T09:26:18.391Z,100236.44
2022-12-28T09:28:46.273Z,100238.06
2022-12-28T09:31:12.759Z,100230.47
2022-12-28T09:34:05.442Z,100232.66
2022-12-28T09:36:26.554Z,100235.03
2022-12-28T09:38:53.556Z,100228.47
2022-12-28T09:41:41.435Z,100225.78
2022-12-28T09:44:13.442Z,100219.53
2022-12-28T09:46:48.861Z,100221.41
2022-12-28T09:49:18.402Z,100221.72
2022-12-28T09:51:54.441Z,100223.84
2022-12-28T09:54:21.013Z,100222.50
2022-12-28T09:56:48.208Z,100223.25
2022-12-28T09:59:19.320Z,100210.56
2022-12-28T10:01:54.593Z,100224.25
2022-12-28T10:04:21.400Z,100216.66
2022-12-28T10:06:47.951Z,100213.47
2022-12-28T10:09:40.413Z,100211.00
2022-12-28T10:12:17.693Z,100195.53
2022-12-28T10:14:46.487Z,100199.91
2022-12-28T10:17:14.164Z,100191.25
2022-12-28T10:19:40.656Z,100195.88
2022-12-28T10:22:11.546Z,100191.66
2022-12-28T10:24:39.625Z,100200.34
2022-12-28T10:27:07.947Z,100195.47
2022-12-28T10:29:34.631Z,100181.91
2022-12-28T10:32:07.575Z,100182.63
2022-12-28T10:34:35.728Z,100174.88
2022-12-28T10:37:16.516Z,100181.72
2022-12-28T10:40:23.244Z,100185.19
2022-12-28T10:42:53.498Z,100176.81
2022-12-28T10:45:42.324Z,100173.81
2022-12-28T10:48:22.626Z,100190.75
2022-12-28T10:51:00.066Z,100167.34
2022-12-28T10:53:30.909Z,100168.38
2022-12-28T10:56:06.338Z,100168.31
2022-12-28T10:58:34.157Z,100162.56
2022-12-28T11:01:07.715Z,100159.38
2022-12-28T11:03:37.956Z,100153.38
2022-12-28T11:06:27.585Z,100151.53
2022-12-28T11:09:13.197Z,100158.78
2022-12-28T11:11:39.967Z,100153.38
2022-12-28T11:14:13.247Z,100150.16
2022-12-28T11:16:41.219Z,100151.84
2022-12-28T11:19:07.822Z,100143.72
2022-12-28T11:21:34.508Z,100140.00
2022-12-28T11:24:01.258Z,100132.91
2022-12-28T11:26:29.501Z,100133.38
2022-12-28T11:28:55.970Z,100135.53
2022-12-28T11:31:35.026Z,100129.81
2022-12-28T11:34:05.648Z,100131.94
2022-12-28T11:36:38.440Z,100124.41
2022-12-28T11:39:26.334Z,100130.63
2022-12-28T11:42:19.546Z,100115.41
2022-12-28T11:44:39.904Z,100114.38
2022-12-28T11:47:15.321Z,100119.00
2022-12-28T11:49:42.650Z,100116.91
2022-12-28T11:52:18.277Z,100110.34
2022-12-28T11:54:59.194Z,100100.94
2022-12-28T11:57:40.483Z,100098.28
2022-12-28T12:00:22.770Z,100100.56
2022-12-28T12:02:53.727Z,100094.66
2022-12-28T12:05:35.319Z,100095.47
2022-12-28T12:08:02.864Z,100085.47
2022-12-28T12:10:36.471Z,100090.06
2022-12-28T12:13:25.513Z,100085.78
2022-12-28T12:15:56.594Z,100076.81
2022-12-28T12:18:25.463Z,100077.63
2022-12-28T12:21:02.847Z,100089.69
2022-12-28T12:23:36.967Z,100076.34
2022-12-28T12:26:35.589Z,100080.69
2022-12-28T12:29:19.358Z,100061.72
2022-12-28T12:31:59.917Z,100054.16
2022-12-28T12:34:45.876Z,100053.53
2022-12-28T12:37:29.175Z,100046.94
2022-12-28T12:40:20.405Z,100046.06
2022-12-28T12:42:55.477Z,100049.56
2022-12-28T12:45:47.937Z,100038.56
2022-12-28T12:48:29.425Z,100034.31
2022-12-28T12:51:26.062Z,100042.00
2022-12-28T12:54:12.486Z,100028.03
2022-12-28T12:56:47.761Z,100025.03
2022-12-28T12:59:25.886Z,100026.34
2022-12-28T13:02:41.156Z,100020.13
2022-12-28T13:05:15.556Z,100023.75
2022-12-28T13:07:42.116Z,100027.41
2022-12-28T13:10:17.093Z,100025.06
2022-12-28T13:12:43.705Z,100023.59
2022-12-28T13:15:17.990Z,100021.78
2022-12-28T13:18:42.564Z,100013.25
2022-12-28T13:20:56.692Z,100008.47
2022-12-28T13:23:24.137Z,100012.16
2022-12-28T13:25:54.034Z,100012.94
2022-12-28T13:28:28.155Z,100004.22
2022-12-28T13:31:01.251Z,100002.00
2022-12-28T13:33:27.584Z,99999.09
2022-12-28T13:36:14.071Z,100006.50
2022-12-28T13:38:40.614Z,100000.28
2022-12-28T13:41:18.665Z,99998.31
2022-12-28T13:44:03.521Z,99995.59
2022-12-28T13:46:31.316Z,100002.09
2022-12-28T13:48:58.622Z,99995.47
2022-12-28T13:51:25.808Z,99998.47
2022-12-28T13:53:57.666Z,99988.81
2022-12-28T13:56:24.943Z,99993.66
2022-12-28T13:59:00.528Z,99984.53
2022-12-28T14:01:35.793Z,99985.72
2022-12-28T14:04:50.621Z,99985.97
2022-12-28T14:06:56.991Z,99993.06
2022-12-28T14:09:23.732Z,100000.91
2022-12-28T14:11:50.794Z,99989.94
2022-12-28T14:14:17.767Z,99985.44
2022-12-28T14:16:44.847Z,99985.72
2022-12-28T14:19:11.644Z,99989.81
2022-12-28T14:21:42.855Z,99986.44
2022-12-28T14:24:12.210Z,99984.41
2022-12-28T14:26:44.641Z,99988.41
2022-12-28T14:29:16.063Z,99987.19
2022-12-28T14:31:42.741Z,99987.91
2022-12-28T14:34:22.487Z,99991.34
2022-12-28T14:36:51.463Z,99995.38
2022-12-28T14:39:26.436Z,100000.25
2022-12-28T14:41:53.636Z,99981.41
2022-12-28T14:44:36.333Z,99993.41
2022-12-28T14:47:02.889Z,99993.97
2022-12-28T14:49:29.185Z,99986.16
2022-12-28T14:51:56.981Z,99963.56
2022-12-28T14:54:25.809Z,99958.88
2022-12-28T14:57:00.680Z,99961.00
2022-12-28T14:59:29.301Z,99950.94
2022-12-28T15:01:56.010Z,99947.94
2022-12-28T15:04:35.804Z,99940.03
2022-12-28T15:07:02.913Z,99933.41
2022-12-28T15:09:29.255Z,99934.41
2022-12-28T15:12:13.690Z,99940.13
2022-12-28T15:14:40.160Z,99936.97
2022-12-28T15:17:07.389Z,99939.22
2022-12-28T15:19:33.762Z,99920.16
2022-12-28T15:22:00.141Z,99929.75
2022-12-28T15:24:33.657Z,99928.34
2022-12-28T15:27:00.464Z,99925.50
2022-12-28T15:29:47.861Z,99920.81
2022-12-28T15:32:13.036Z,99915.78
2022-12-28T15:34:39.329Z,99912.50
2022-12-28T15:37:05.645Z,99907.56
2022-12-28T15:39:31.931Z,99905.91
2022-12-28T15:41:58.257Z,99885.31
2022-12-28T15:44:24.565Z,99888.66
2022-12-28T15:46:50.916Z,99889.03
2022-12-28T15:49:18.302Z,99893.84
2022-12-28T15:51:45.592Z,99884.13
2022-12-28T15:54:13.234Z,99884.41
2022-12-28T15:56:41.151Z,99879.81
2022-12-28T15:59:14.471Z,99876.75
2022-12-28T16:01:43.513Z,99872.81
2022-12-28T16:04:10.733Z,99874.72
2022-12-28T16:06:43.685Z,99869.38
2022-12-28T16:09:11.582Z,99869.09
2022-12-28T16:11:37.891Z,99866.66
2022-12-28T16:14:06.450Z,99865.50
2022-12-28T16:16:38.497Z,99854.69
2022-12-28T16:19:05.869Z,99848.69
2022-12-28T16:21:32.628Z,99849.28
2022-12-28T16:23:59.894Z,99840.66
2022-12-28T16:26:26.731Z,99836.41
2022-12-28T16:28:53.200Z,99845.63
2022-12-28T16:31:30.284Z,99836.31
2022-12-28T16:34:09.727Z,99828.56
2022-12-28T16:36:36.050Z,99832.09
2022-12-28T16:39:05.311Z,99825.72
2022-12-28T16:41:36.657Z,99829.88
2022-12-28T16:44:18.523Z,99818.25
2022-12-28T16:46:44.913Z,99810.75
2022-12-28T16:49:12.346Z,99812.06
2022-12-28T16:51:40.625Z,99799.66
2022-12-28T16:54:07.579Z,99804.94
2022-12-28T16:56:34.383Z,99791.00
2022-12-28T16:59:00.680Z,99790.63
2022-12-28T17:01:27.911Z,99784.50
2022-12-28T17:03:58.603Z,99781.38
2022-12-28T17:06:28.258Z,99778.47
2022-12-28T17:08:54.562Z,99776.97
2022-12-28T17:11:20.905Z,99774.00
2022-12-28T17:13:47.237Z,99774.59
2022-12-28T17:16:13.590Z,99757.94
2022-12-28T17:18:39.925Z,99760.16
2022-12-28T17:21:07.234Z,99761.06
2022-12-28T17:23:34.033Z,99750.75
2022-12-28T17:26:00.348Z,99745.13
2022-12-28T17:28:26.732Z,99746.53
2022-12-28T17:31:06.472Z,99739.84
2022-12-28T17:33:38.923Z,99744.34
2022-12-28T17:36:06.576Z,99733.44
2022-12-28T17:38:32.933Z,99731.41
2022-12-28T17:40:59.256Z,99723.81
2022-12-28T17:43:25.600Z,99724.28
2022-12-28T17:45:51.991Z,99726.53
2022-12-28T17:48:18.326Z,99729.41
2022-12-28T17:50:44.618Z,99719.91
2022-12-28T17:53:10.971Z,99716.91
2022-12-28T17:55:37.304Z,99716.09
2022-12-28T17:58:03.668Z,99708.41
2022-12-28T18:00:30.020Z,99702.50
2022-12-28T18:02:56.583Z,99701.47
2022-12-28T18:05:23.072Z,99687.47
2022-12-28T18:07:49.390Z,99676.44
2022-12-28T18:10:15.738Z,99694.59
2022-12-28T18:12:42.031Z,99683.34
2022-12-28T18:15:08.577Z,99679.47
2022-12-28T18:17:34.862Z,99679.75
2022-12-28T18:20:01.169Z,99674.06
2022-12-28T18:22:27.471Z,99667.91
2022-12-28T18:24:53.825Z,99667.53
2022-12-28T18:27:20.294Z,99661.59
2022-12-28T18:29:46.630Z,99649.47
2022-12-28T18:32:12.995Z,99653.59
2022-12-28T18:34:39.579Z,99653.59
2022-12-28T18:37:05.972Z,99656.00
2022-12-28T18:39:32.282Z,99647.09
2022-12-28T18:41:58.626Z,99648.97
2022-12-28T18:44:25.073Z,99653.91
2022-12-28T18:46:51.433Z,99644.78
2022-12-28T18:49:17.907Z,99650.50
2022-12-28T18:51:44.286Z,99637.59
2022-12-28T18:54:10.611Z,99628.34
2022-12-28T18:56:36.978Z,99631.75
2022-12-28T18:59:03.339Z,99639.78
2022-12-28T19:04:17.226Z,99634.97
2022-12-28T19:06:44.408Z,99632.78
2022-12-28T19:09:11.751Z,99627.09
2022-12-28T19:11:38.926Z,99621.06
2022-12-28T19:14:07.381Z,99620.25
2022-12-28T19:16:34.816Z,99608.13
2022-12-28T19:19:01.907Z,99600.09
2022-12-28T19:21:36.870Z,99608.22
2022-12-28T19:24:06.513Z,99590.91
2022-12-28T19:26:34.700Z,99589.69
2022-12-28T19:29:01.692Z,99586.91
2022-12-28T19:31:28.210Z,99585.28
2022-12-28T19:33:55.164Z,99574.28
2022-12-28T19:36:21.909Z,99567.47
2022-12-28T19:38:48.316Z,99565.19
2022-12-28T19:41:16.156Z,99561.28
2022-12-28T19:43:43.720Z,99551.59
2022-12-28T19:46:13.594Z,99541.06
2022-12-28T19:48:40.009Z,99542.97
2022-12-28T19:51:07.030Z,99542.88
2022-12-28T19:53:33.553Z,99539.84
2022-12-28T19:56:05.660Z,99534.25
2022-12-28T19:58:33.698Z,99529.28
2022-12-28T20:01:08.199Z,99533.84
2022-12-28T20:03:34.932Z,99532.47
2022-12-28T20:06:16.175Z,99520.75
2022-12-28T20:08:45.939Z,99520.84
2022-12-28T20:11:12.297Z,99518.16
2022-12-28T20:13:38.690Z,99515.44
2022-12-28T20:16:05.218Z,99504.97
2022-12-28T20:18:31.589Z,99515.84
2022-12-28T20:21:19.065Z,99508.84
2022-12-28T20:23:46.431Z,99504.53
2022-12-28T20:26:12.762Z,99502.63
2022-12-28T20:28:39.121Z,99491.53
2022-12-28T20:31:08.866Z,99499.44
2022-12-28T20:33:36.540Z,99497.22
2022-12-28T20:36:11.920Z,99494.94
2022-12-28T20:38:38.274Z,99484.84
2022-12-28T20:41:08.571Z,99492.03
2022-12-28T20:43:35.986Z,99488.66
2022-12-28T20:46:02.477Z,99492.44
2022-12-28T20:48:29.509Z,99476.03
2022-12-28T20:50:58.068Z,99456.94
2022-12-28T20:53:24.693Z,99476.63
2022-12-28T20:55:51.025Z,99463.31
2022-12-28T20:58:18.244Z,99461.91
2022-12-28T21:00:44.611Z,99466.03
2022-12-28T21:03:10.971Z,99464.63
2022-12-28T21:05:37.341Z,99456.63
2022-12-28T21:08:03.742Z,99450.00
2022-12-28T21:10:30.056Z,99443.81
2022-12-28T21:12:56.351Z,99447.03
2022-12-28T21:15:22.672Z,99437.19
2022-12-28T21:17:48.959Z,99438.50
2022-12-28T21:20:15.311Z,99431.78
2022-12-28T21:22:41.616Z,99437.19
2022-12-28T21:25:08.648Z,99425.19
2022-12-28T21:27:34.973Z,99432.31
2022-12-28T21:30:01.286Z,99433.00
2022-12-28T21:32:27.600Z,99432.09
2022-12-28T21:34:53.917Z,99428.78
2022-12-28T21:37:20.211Z,99433.47
2022-12-28T21:39:46.748Z,99428.97
2022-12-28T21:42:13.081Z,99427.56
2022-12-28T21:44:39.372Z,99416.59
2022-12-28T21:47:05.679Z,99413.91
2022-12-28T21:49:32.043Z,99420.72
2022-12-28T21:51:58.429Z,99411.69
2022-12-28T21:54:26.024Z,99403.88
2022-12-28T21:56:54.827Z,99402.19
2022-12-28T21:59:23.081Z,99412.06
2022-12-28T22:01:49.496Z,99396.41
2022-12-28T22:04:18.872Z,99397.03
2022-12-28T22:06:45.179Z,99402.59
2022-12-28T22:09:11.573Z,99394.38
2022-12-28T22:11:37.895Z,99397.25
2022-12-28T22:14:05.444Z,99394.56
2022-12-28T22:16:33.288Z,99389.34
2022-12-28T22:19:02.637Z,99389.88
2022-12-28T22:21:29.739Z,99392.47
2022-12-28T22:23:56.042Z,99376.41
2022-12-28T22:26:22.632Z,99387.25
2022-12-28T22:28:48.949Z,99378.53
2022-12-28T22:31:15.333Z,99378.91
2022-12-28T22:33:41.661Z,99368.75
2022-12-28T22:36:18.147Z,99366.53
2022-12-28T22:38:44.805Z,99360.13
2022-12-28T22:41:11.162Z,99360.94
2022-12-28T22:43:37.537Z,99357.94
2022-12-28T22:46:11.499Z,99358.94
2022-12-28T22:48:38.008Z,99362.59
2022-12-28T22:51:10.761Z,99357.63
2022-12-28T22:53:37.431Z,99359.44
2022-12-28T22:56:06.558Z,99353.56
2022-12-28T22:58:33.323Z,99355.34
2022-12-28T23:01:11.950Z,99350.88
2022-12-28T23:03:43.374Z,99355.50
2022-12-28T23:06:11.567Z,99361.44
2022-12-28T23:08:38.441Z,99354.25
2022-12-28T23:11:07.307Z,99346.44
2022-12-28T23:13:33.613Z,99353.47
2022-12-28T23:15:59.846Z,99348.06
2022-12-28T23:18:26.365Z,99353.19
2022-12-28T23:20:52.670Z,99343.59
2022-12-28T23:23:18.957Z,99352.09
2022-12-28T23:25:45.277Z,99349.53
2022-12-28T23:28:14.172Z,99342.19
2022-12-28T23:30:44.103Z,99342.19
2022-12-28T23:33:10.572Z,99339.16
2022-12-28T23:35:36.908Z,99345.06
2022-12-28T23:38:03.359Z,99337.25
2022-12-28T23:40:29.725Z,99336.63
2022-12-28T23:42:56.046Z,99327.38
2022-12-28T23:45:22.659Z,99330.28
2022-12-28T23:47:52.821Z,99329.16
2022-12-28T23:50:19.722Z,99340.16
2022-12-28T23:52:46.181Z,99334.44
2022-12-28T23:55:12.547Z,99328.84
2022-12-28T23:57:38.957Z,99320.38
